Time;durP1;ratioP1;P1;durP2;ratioP2;P2;SDS_P1;SDS_P2;PMS_P1;PMS_P2;Temp;Humidity;BMP_temperature;BMP_pressure;BME280_temperature;BME280_humidity;BME280_pressure;Samples;Min_cycle;Max_cycle;Signal;HPM_P1;HPM_P2
2024/01/26 00:00:14;;;;;;;13.73;9.40;;;8.70;70.50;;;;;;6123266;23;20021;-78
2024/01/26 00:02:40;;;;;;;14.00;9.68;;;8.70;70.40;;;;;;6124039;23;20032;-79
2024/01/26 00:05:06;;;;;;;14.85;9.00;;;8.70;70.50;;;;;;6150180;23;20122;-78
2024/01/26 00:07:33;;;;;;;12.55;9.23;;;8.70;70.40;;;;;;6151162;23;20017;-78
2024/01/26 00:09:58;;;;;;;15.00;9.27;;;8.70;70.40;;;;;;6150960;23;20021;-79
2024/01/26 00:12:24;;;;;;;14.80;9.82;;;8.70;70.40;;;;;;6150610;23;20025;-78
2024/01/26 00:14:50;;;;;;;13.82;9.45;;;8.70;70.10;;;;;;6151959;23;20105;-79
2024/01/26 00:17:16;;;;;;;13.38;9.25;;;8.70;70.20;;;;;;6150453;23;20041;-79
2024/01/26 00:19:42;;;;;;;16.15;10.13;;;8.70;70.30;;;;;;6152812;23;20009;-78
2024/01/26 00:22:08;;;;;;;13.43;9.68;;;8.70;70.30;;;;;;6149848;23;20022;-80
2024/01/26 00:24:34;;;;;;;14.73;9.55;;;8.70;70.30;;;;;;6151953;23;20024;-80
2024/01/26 00:27:00;;;;;;;12.43;9.38;;;8.60;70.20;;;;;;6125719;23;20017;-80
2024/01/26 00:29:26;;;;;;;13.20;9.40;;;8.60;70.30;;;;;;6150073;23;20017;-80
2024/01/26 00:31:52;;;;;;;14.90;10.05;;;8.60;70.30;;;;;;6149973;23;20017;-79
2024/01/26 00:34:18;;;;;;;15.95;9.98;;;8.60;70.30;;;;;;6152044;23;20518;-80
2024/01/26 00:36:44;;;;;;;14.90;9.43;;;8.60;70.30;;;;;;6151587;23;20041;-80
2024/01/26 00:39:11;;;;;;;12.45;9.55;;;8.60;70.30;;;;;;6150293;23;20533;-80
2024/01/26 00:41:37;;;;;;;14.85;9.38;;;8.60;70.30;;;;;;6151344;23;20388;-80
2024/01/26 00:44:03;;;;;;;14.15;9.48;;;8.60;70.30;;;;;;6150284;23;20017;-80
2024/01/26 00:46:29;;;;;;;13.93;9.60;;;8.60;70.20;;;;;;6152130;23;20009;-80
2024/01/26 00:48:55;;;;;;;16.48;10.05;;;8.60;70.10;;;;;;6101180;23;20072;-80
2024/01/26 00:51:21;;;;;;;14.93;10.10;;;8.60;70.00;;;;;;6151070;23;20156;-79
2024/01/26 00:53:47;;;;;;;13.57;9.13;;;8.60;69.90;;;;;;6152154;23;20028;-80
2024/01/26 00:56:13;;;;;;;14.75;9.40;;;8.60;69.80;;;;;;6150130;23;20461;-80
2024/01/26 00:58:39;;;;;;;16.48;10.45;;;8.50;69.70;;;;;;6152069;23;20013;-79
2024/01/26 01:01:06;;;;;;;24.95;10.38;;;8.60;69.90;;;;;;6151412;23;20017;-80
2024/01/26 01:03:32;;;;;;;28.58;9.88;;;8.60;69.90;;;;;;6151081;23;20342;-81
2024/01/26 01:05:58;;;;;;;15.20;9.70;;;8.60;69.90;;;;;;6151593;23;20027;-79
2024/01/26 01:08:24;;;;;;;14.82;9.63;;;8.60;70.10;;;;;;6152394;23;20017;-80
2024/01/26 01:10:50;;;;;;;14.57;9.85;;;8.50;70.00;;;;;;6149555;23;20457;-76
2024/01/26 01:13:16;;;;;;;14.90;9.82;;;8.50;70.00;;;;;;6125537;23;20059;-81
2024/01/26 01:15:42;;;;;;;16.52;10.88;;;8.50;70.00;;;;;;6149485;23;20204;-79
2024/01/26 01:18:08;;;;;;;15.10;10.57;;;8.50;70.10;;;;;;6100415;23;20088;-80
2024/01/26 01:20:34;;;;;;;15.75;10.15;;;8.50;70.00;;;;;;6125154;23;20656;-81
2024/01/26 01:23:01;;;;;;;15.02;10.10;;;8.50;69.90;;;;;;6100598;23;20044;-81
2024/01/26 01:25:26;;;;;;;14.73;9.93;;;8.50;69.90;;;;;;6151116;23;20005;-80
2024/01/26 01:27:53;;;;;;;15.57;10.68;;;8.50;69.90;;;;;;6125157;23;20019;-80
2024/01/26 01:30:19;;;;;;;15.02;9.57;;;8.50;69.80;;;;;;6150115;23;20017;-79
2024/01/26 01:32:45;;;;;;;15.25;10.35;;;8.50;69.80;;;;;;6151827;23;20021;-80
2024/01/26 01:35:11;;;;;;;16.00;10.50;;;8.50;69.80;;;;;;6152058;23;20017;-80
2024/01/26 01:37:37;;;;;;;14.07;9.85;;;8.50;69.80;;;;;;6150697;23;20080;-81
2024/01/26 01:40:03;;;;;;;14.20;9.80;;;8.50;69.80;;;;;;6125127;23;20017;-80
2024/01/26 01:42:29;;;;;;;14.95;10.05;;;8.50;69.70;;;;;;6149965;23;20076;-81
2024/01/26 01:44:55;;;;;;;16.67;10.50;;;8.50;69.60;;;;;;6148687;23;20013;-80
2024/01/26 01:47:21;;;;;;;15.68;10.40;;;8.50;69.50;;;;;;6150642;23;20022;-79
2024/01/26 01:49:47;;;;;;;15.02;10.50;;;8.50;69.60;;;;;;6152293;23;20088;-79
2024/01/26 01:52:18;;;;;;;15.32;10.48;;;8.50;69.70;;;;;;6124619;23;20072;-80
2024/01/26 01:54:44;;;;;;;14.23;10.32;;;8.50;69.60;;;;;;6149540;23;20025;-79
2024/01/26 01:57:14;;;;;;;15.93;10.18;;;8.50;69.70;;;;;;6124543;23;20346;-79
2024/01/26 01:59:41;;;;;;;14.95;9.88;;;8.50;69.60;;;;;;6124249;23;20065;-78
2024/01/26 02:02:08;;;;;;;15.65;10.90;;;8.60;69.80;;;;;;6150015;23;20090;-79
2024/01/26 02:04:34;;;;;;;15.32;10.45;;;8.50;69.50;;;;;;6150428;23;20400;-79
2024/01/26 02:07:04;;;;;;;14.82;10.50;;;8.50;69.50;;;;;;6149173;23;20025;-78
2024/01/26 02:09:30;;;;;;;16.23;10.85;;;8.50;69.50;;;;;;6150870;23;20041;-79
2024/01/26 02:11:57;;;;;;;16.20;11.15;;;8.50;69.50;;;;;;6150278;23;20021;-79
2024/01/26 02:14:25;;;;;;;15.88;11.43;;;8.50;69.40;;;;;;6149157;23;20025;-80
2024/01/26 02:16:55;;;;;;;16.70;10.85;;;8.50;69.20;;;;;;6124464;23;20013;-79
2024/01/26 02:19:22;;;;;;;16.63;11.23;;;8.50;69.20;;;;;;6151079;23;20011;-78
2024/01/26 02:21:48;;;;;;;15.45;11.02;;;8.50;69.20;;;;;;6150108;23;20017;-78
2024/01/26 02:24:14;;;;;;;16.83;11.05;;;8.50;69.30;;;;;;6150529;23;20668;-80
2024/01/26 02:26:41;;;;;;;15.02;11.02;;;8.50;69.40;;;;;;6150297;23;20028;-79
2024/01/26 02:29:07;;;;;;;14.85;10.95;;;8.50;69.60;;;;;;6124538;23;20017;-78
2024/01/26 02:31:33;;;;;;;15.27;10.50;;;8.50;69.60;;;;;;6100485;23;20096;-79
2024/01/26 02:34:00;;;;;;;14.90;10.65;;;8.50;69.40;;;;;;6148442;23;20021;-78
2024/01/26 02:36:28;;;;;;;16.13;10.73;;;8.50;69.40;;;;;;6150706;23;20473;-78
2024/01/26 02:38:54;;;;;;;16.08;10.65;;;8.50;69.40;;;;;;6124340;23;20025;-79
2024/01/26 02:41:20;;;;;;;16.20;10.70;;;8.50;69.30;;;;;;6149641;23;20021;-78
2024/01/26 02:43:46;;;;;;;15.10;10.73;;;8.50;69.20;;;;;;6124507;23;20368;-79
2024/01/26 02:46:12;;;;;;;15.13;10.10;;;8.50;69.20;;;;;;6124563;23;20104;-80
2024/01/26 02:48:39;;;;;;;16.27;10.60;;;8.50;69.20;;;;;;6123958;23;20454;-79
2024/01/26 02:51:05;;;;;;;14.90;9.57;;;8.50;69.20;;;;;;6150066;23;20017;-78
2024/01/26 02:53:32;;;;;;;18.05;11.40;;;8.50;69.10;;;;;;6124152;23;20057;-79
2024/01/26 02:55:58;;;;;;;17.55;11.40;;;8.50;69.10;;;;;;6150736;23;20055;-80
2024/01/26 02:58:25;;;;;;;15.27;10.85;;;8.50;69.10;;;;;;6150490;23;20009;-81
2024/01/26 03:00:51;;;;;;;15.80;11.02;;;8.50;69.00;;;;;;6150463;23;20105;-81
2024/01/26 03:03:17;;;;;;;16.55;11.43;;;8.50;69.00;;;;;;6148645;23;20524;-79
2024/01/26 03:05:43;;;;;;;16.77;11.15;;;8.50;68.80;;;;;;6124076;23;20019;-78
2024/01/26 03:08:09;;;;;;;15.98;11.10;;;8.40;68.90;;;;;;6123762;23;20353;-79
2024/01/26 03:10:35;;;;;;;16.73;11.40;;;8.40;68.80;;;;;;6150872;23;20001;-80
2024/01/26 03:13:01;;;;;;;17.67;11.15;;;8.50;69.00;;;;;;6149668;23;20372;-79
2024/01/26 03:15:27;;;;;;;16.92;11.23;;;8.50;69.00;;;;;;6150138;23;20025;-79
2024/01/26 03:17:53;;;;;;;17.55;11.25;;;8.40;68.80;;;;;;6150265;23;20017;-80
2024/01/26 03:20:19;;;;;;;19.08;11.75;;;8.50;68.90;;;;;;6150300;23;20552;-80
2024/01/26 03:22:45;;;;;;;15.05;11.40;;;8.50;68.80;;;;;;6148797;23;20009;-80
2024/01/26 03:25:11;;;;;;;20.15;12.32;;;8.50;68.80;;;;;;6149470;23;20060;-79
2024/01/26 03:27:37;;;;;;;18.13;11.93;;;8.50;68.70;;;;;;6150170;23;20364;-80
2024/01/26 03:30:06;;;;;;;17.13;11.85;;;8.50;68.80;;;;;;6149694;23;20025;-78
2024/01/26 03:32:32;;;;;;;17.08;11.77;;;8.40;68.60;;;;;;6149554;23;20026;-78
2024/01/26 03:34:59;;;;;;;19.80;12.63;;;8.40;68.70;;;;;;6148446;23;20097;-79
2024/01/26 03:37:25;;;;;;;18.77;12.20;;;8.40;68.60;;;;;;6151376;23;20017;-80
2024/01/26 03:39:51;;;;;;;19.30;12.18;;;8.50;68.60;;;;;;6152790;23;20057;-82
2024/01/26 03:42:17;;;;;;;19.10;12.73;;;8.50;68.60;;;;;;6151815;23;20150;-81
2024/01/26 03:44:43;;;;;;;21.05;13.07;;;8.40;69.30;;;;;;6152376;23;20082;-82
2024/01/26 03:47:10;;;;;;;17.88;12.43;;;8.40;68.80;;;;;;6151978;23;20100;-83
2024/01/26 03:49:41;;;;;;;20.17;12.98;;;8.40;68.90;;;;;;6153685;23;20448;-81
2024/01/26 03:52:07;;;;;;;19.73;13.10;;;8.40;69.00;;;;;;6126869;23;20361;-82
2024/01/26 03:54:33;;;;;;;20.85;13.30;;;8.40;68.90;;;;;;6102355;23;20017;-81
2024/01/26 03:56:59;;;;;;;21.33;14.73;;;8.40;68.90;;;;;;6127722;23;20465;-81
2024/01/26 03:59:25;;;;;;;21.08;13.40;;;8.40;68.90;;;;;;6102401;23;20021;-81
2024/01/26 04:01:51;;;;;;;21.38;13.32;;;8.40;68.90;;;;;;6102689;23;20031;-79
2024/01/26 04:04:17;;;;;;;22.20;13.40;;;8.40;68.80;;;;;;6103854;23;20013;-81
2024/01/26 04:06:43;;;;;;;21.80;14.40;;;8.40;68.60;;;;;;6150569;23;20067;-81
2024/01/26 04:09:10;;;;;;;20.17;14.25;;;8.40;68.50;;;;;;6126276;23;20461;-81
2024/01/26 04:11:36;;;;;;;21.15;13.70;;;8.40;68.60;;;;;;6152372;23;20021;-80
2024/01/26 04:14:03;;;;;;;20.20;14.20;;;8.40;68.60;;;;;;6151829;23;20020;-79
2024/01/26 04:16:29;;;;;;;20.33;13.98;;;8.40;68.50;;;;;;6151499;23;20016;-77
2024/01/26 04:18:55;;;;;;;23.33;14.25;;;8.40;68.30;;;;;;6150122;23;20021;-79
2024/01/26 04:21:21;;;;;;;22.55;14.55;;;8.40;68.20;;;;;;6150236;23;20064;-76
2024/01/26 04:23:47;;;;;;;21.80;14.18;;;8.40;68.20;;;;;;6126865;23;20022;-79
2024/01/26 04:26:14;;;;;;;23.17;14.75;;;8.40;68.20;;;;;;6127985;23;20033;-78
2024/01/26 04:28:41;;;;;;;22.63;14.70;;;8.40;68.20;;;;;;6153882;23;20458;-79
2024/01/26 04:31:07;;;;;;;21.75;14.07;;;8.40;68.10;;;;;;6152005;23;20033;-79
2024/01/26 04:33:33;;;;;;;20.35;13.68;;;8.40;68.20;;;;;;6127532;23;20017;-79
2024/01/26 04:36:00;;;;;;;21.58;13.63;;;8.40;68.10;;;;;;6127792;23;20372;-79
2024/01/26 04:38:26;;;;;;;25.88;15.32;;;8.30;68.00;;;;;;6126913;23;20025;-78
2024/01/26 04:40:52;;;;;;;22.88;14.95;;;8.30;68.00;;;;;;6152136;23;20093;-79
2024/01/26 04:43:19;;;;;;;22.88;15.30;;;8.40;68.00;;;;;;6153357;23;20416;-86
2024/01/26 04:45:45;;;;;;;23.05;14.50;;;8.30;67.80;;;;;;6128778;23;20044;-84
2024/01/26 04:48:12;;;;;;;23.83;14.70;;;8.30;67.60;;;;;;6128417;23;20029;-82
2024/01/26 04:50:38;;;;;;;21.95;15.18;;;8.30;67.90;;;;;;6128451;23;20017;-84
2024/01/26 04:53:04;;;;;;;22.48;13.88;;;8.30;68.00;;;;;;6104193;23;20061;-88
2024/01/26 04:55:30;;;;;;;22.25;14.23;;;8.30;68.10;;;;;;6080924;23;20018;-77
2024/01/26 04:57:56;;;;;;;22.58;14.40;;;8.30;68.10;;;;;;6151414;23;20109;-77
2024/01/26 05:00:23;;;;;;;22.35;15.15;;;8.30;68.10;;;;;;6153141;23;20480;-77
2024/01/26 05:02:49;;;;;;;23.52;14.32;;;8.30;68.20;;;;;;6151257;23;20027;-76
2024/01/26 05:05:16;;;;;;;22.27;15.05;;;8.30;68.50;;;;;;6150720;23;20072;-77
2024/01/26 05:07:42;;;;;;;25.05;14.95;;;8.30;68.80;;;;;;6126964;23;20333;-76
2024/01/26 05:10:08;;;;;;;26.55;15.07;;;8.30;69.10;;;;;;6150829;23;20022;-76
2024/01/26 05:12:34;;;;;;;20.40;13.60;;;8.30;69.30;;;;;;6152560;23;20137;-76
2024/01/26 05:15:02;;;;;;;23.60;13.88;;;8.30;69.60;;;;;;6152434;23;20026;-76
2024/01/26 05:17:28;;;;;;;25.50;15.57;;;8.30;69.70;;;;;;6152884;23;20028;-77
2024/01/26 05:19:54;;;;;;;25.27;15.18;;;8.30;69.70;;;;;;6152939;23;20036;-77
2024/01/26 05:22:20;;;;;;;22.05;14.88;;;8.30;70.20;;;;;;6152819;23;20033;-77
2024/01/26 05:24:46;;;;;;;22.15;14.88;;;8.30;69.60;;;;;;6150825;23;20022;-76
2024/01/26 05:27:12;;;;;;;24.23;15.25;;;8.30;69.70;;;;;;6151304;23;20469;-76
2024/01/26 05:29:38;;;;;;;24.77;15.60;;;8.30;69.50;;;;;;6126445;23;20018;-76
2024/01/26 05:32:05;;;;;;;23.02;14.77;;;8.30;69.60;;;;;;6152352;23;20100;-76
2024/01/26 05:34:31;;;;;;;21.73;14.50;;;8.40;69.60;;;;;;6151115;23;20009;-77
2024/01/26 05:36:57;;;;;;;23.77;14.73;;;8.30;69.40;;;;;;6152582;23;20068;-76
2024/01/26 05:39:23;;;;;;;22.92;15.38;;;8.30;69.30;;;;;;6152551;23;20021;-76
2024/01/26 05:41:49;;;;;;;20.45;14.15;;;8.40;69.30;;;;;;6152613;23;20104;-76
2024/01/26 05:44:15;;;;;;;23.42;15.20;;;8.30;69.10;;;;;;6150218;23;20515;-75
2024/01/26 05:46:41;;;;;;;22.90;14.40;;;8.30;69.00;;;;;;6151216;23;20017;-76
2024/01/26 05:49:07;;;;;;;21.20;14.05;;;8.30;68.90;;;;;;6152609;23;20021;-77
2024/01/26 05:51:33;;;;;;;23.15;15.00;;;8.30;69.00;;;;;;6102559;23;20021;-78
2024/01/26 05:53:59;;;;;;;23.48;15.43;;;8.30;69.00;;;;;;6152830;23;20530;-78
2024/01/26 05:56:26;;;;;;;23.70;14.30;;;8.30;68.80;;;;;;6126822;23;20029;-77
2024/01/26 05:58:52;;;;;;;21.92;14.13;;;8.30;68.70;;;;;;6101990;23;20449;-77
2024/01/26 06:01:18;;;;;;;23.63;14.52;;;8.30;68.60;;;;;;6152740;23;20009;-77
2024/01/26 06:03:44;;;;;;;24.45;14.20;;;8.30;68.40;;;;;;6151041;23;20103;-78
2024/01/26 06:06:29;;;;;;;22.42;14.07;;;8.40;68.40;;;;;;6152790;23;20022;-80
2024/01/26 06:08:55;;;;;;;21.85;13.88;;;8.30;68.20;;;;;;6102077;23;20017;-79
2024/01/26 06:11:22;;;;;;;24.00;14.52;;;8.40;68.30;;;;;;6151037;23;20021;-79
2024/01/26 06:13:48;;;;;;;21.15;13.77;;;8.40;68.20;;;;;;6126948;23;20338;-79
2024/01/26 06:16:14;;;;;;;22.15;14.50;;;8.40;68.20;;;;;;6126449;23;20025;-79
2024/01/26 06:18:43;;;;;;;21.98;14.02;;;8.30;68.10;;;;;;6126257;23;20029;-77
2024/01/26 06:21:11;;;;;;;22.65;13.75;;;8.40;68.00;;;;;;6150948;23;20017;-80
2024/01/26 06:23:38;;;;;;;21.27;13.43;;;8.40;68.60;;;;;;6100662;23;20031;-79
2024/01/26 06:26:05;;;;;;;21.80;14.40;;;8.40;68.20;;;;;;6125298;23;20491;-79
2024/01/26 06:28:31;;;;;;;22.33;13.95;;;8.40;68.20;;;;;;6150529;23;20005;-79
2024/01/26 06:30:57;;;;;;;21.52;13.73;;;8.40;68.30;;;;;;6150478;23;20021;-78
2024/01/26 06:33:23;;;;;;;21.15;13.80;;;8.40;68.30;;;;;;6125507;23;20017;-80
2024/01/26 06:35:49;;;;;;;21.30;13.50;;;8.40;68.40;;;;;;6148329;23;20065;-80
2024/01/26 06:38:16;;;;;;;21.92;13.90;;;8.40;68.40;;;;;;6150373;23;20085;-79
2024/01/26 06:40:42;;;;;;;22.55;13.77;;;8.40;68.30;;;;;;6151902;23;20013;-80
2024/01/26 06:43:09;;;;;;;21.75;13.63;;;8.40;68.30;;;;;;6100366;23;20017;-79
2024/01/26 06:45:35;;;;;;;21.38;13.90;;;8.40;68.10;;;;;;6148590;23;20017;-78
2024/01/26 06:48:01;;;;;;;21.65;13.85;;;8.40;68.00;;;;;;6124775;23;20532;-79
2024/01/26 06:50:29;;;;;;;20.48;13.52;;;8.40;67.90;;;;;;6149540;23;20405;-77
2024/01/26 06:52:55;;;;;;;24.35;13.65;;;8.40;67.80;;;;;;6125362;23;20400;-78
2024/01/26 06:55:21;;;;;;;21.20;13.27;;;8.40;67.70;;;;;;6125172;23;20014;-78
2024/01/26 06:57:47;;;;;;;22.10;14.13;;;8.40;67.60;;;;;;6125025;23;20017;-78
2024/01/26 07:00:13;;;;;;;19.90;12.93;;;8.40;67.50;;;;;;6150284;23;20025;-78
2024/01/26 07:02:39;;;;;;;22.58;13.38;;;8.50;67.50;;;;;;6151139;23;20017;-77
2024/01/26 07:05:06;;;;;;;20.95;13.75;;;8.50;67.30;;;;;;6149216;23;20010;-79
2024/01/26 07:07:32;;;;;;;22.45;14.32;;;8.50;67.30;;;;;;6150297;23;20095;-78
2024/01/26 07:09:58;;;;;;;21.60;13.82;;;8.50;67.20;;;;;;6125015;23;20021;-78
2024/01/26 07:12:27;;;;;;;22.25;13.68;;;8.50;67.30;;;;;;6125080;23;20028;-79
2024/01/26 07:14:53;;;;;;;21.70;14.18;;;8.50;67.30;;;;;;6100380;23;20021;-79
2024/01/26 07:17:19;;;;;;;20.38;13.02;;;8.50;67.20;;;;;;6100552;23;20096;-79
2024/01/26 07:19:45;;;;;;;22.77;14.05;;;8.40;67.00;;;;;;6149858;23;20013;-77
2024/01/26 07:22:11;;;;;;;22.20;13.60;;;8.50;67.00;;;;;;6149391;23;20590;-79
2024/01/26 07:24:37;;;;;;;22.83;14.02;;;8.50;66.90;;;;;;6150955;23;20155;-77
2024/01/26 07:27:03;;;;;;;19.90;13.60;;;8.50;66.90;;;;;;6150708;23;20025;-77
2024/01/26 07:29:29;;;;;;;21.17;13.75;;;8.50;66.70;;;;;;6125250;23;20021;-79
2024/01/26 07:31:55;;;;;;;20.27;13.18;;;8.50;66.70;;;;;;6124581;23;20012;-77
2024/01/26 07:34:21;;;;;;;21.80;14.02;;;8.50;66.70;;;;;;6150052;23;20481;-77
2024/01/26 07:36:47;;;;;;;21.30;13.02;;;8.50;66.60;;;;;;6123067;23;20021;-77
2024/01/26 07:39:13;;;;;;;21.98;14.23;;;8.60;66.80;;;;;;6150977;23;20028;-79
2024/01/26 07:41:39;;;;;;;20.45;13.45;;;8.50;66.70;;;;;;6149190;23;20026;-79
2024/01/26 07:44:05;;;;;;;22.48;15.07;;;8.50;66.60;;;;;;6151461;23;20020;-79
2024/01/26 07:46:32;;;;;;;22.02;13.90;;;8.50;66.60;;;;;;6125192;23;20019;-79
2024/01/26 07:49:00;;;;;;;23.08;14.95;;;8.50;66.70;;;;;;6119664;23;20025;-79
2024/01/26 07:51:27;;;;;;;20.90;13.75;;;8.50;66.70;;;;;;6144344;23;20025;-79
2024/01/26 07:53:53;;;;;;;20.17;13.25;;;8.60;66.70;;;;;;6120181;23;20025;-79
2024/01/26 07:56:19;;;;;;;23.33;14.18;;;8.60;66.70;;;;;;6143962;23;20083;-79
2024/01/26 07:58:45;;;;;;;21.65;13.93;;;8.60;66.60;;;;;;6120381;23;20006;-79
2024/01/26 08:01:13;;;;;;;22.60;13.80;;;8.60;66.60;;;;;;6119513;23;20525;-77
2024/01/26 08:03:39;;;;;;;21.92;13.90;;;8.60;66.50;;;;;;6119272;23;20092;-79
2024/01/26 08:06:05;;;;;;;22.20;13.73;;;8.60;66.40;;;;;;6119740;23;20045;-79
2024/01/26 08:08:31;;;;;;;21.52;13.23;;;8.60;66.30;;;;;;6119644;23;20049;-78
2024/01/26 08:10:58;;;;;;;20.40;13.00;;;8.60;66.30;;;;;;6119230;23;20446;-77
2024/01/26 08:13:24;;;;;;;21.00;14.20;;;8.60;66.30;;;;;;6120190;23;20013;-78
2024/01/26 08:15:50;;;;;;;21.25;13.73;;;8.60;66.20;;;;;;6143724;23;20029;-77
2024/01/26 08:18:16;;;;;;;19.90;13.63;;;8.70;66.10;;;;;;6144167;23;20018;-78
2024/01/26 08:20:42;;;;;;;24.52;14.27;;;8.70;66.00;;;;;;6095118;23;20430;-79
2024/01/26 08:23:08;;;;;;;21.60;14.45;;;8.70;65.90;;;;;;6095235;23;20018;-78
2024/01/26 08:25:34;;;;;;;20.67;13.25;;;8.70;65.80;;;;;;6121763;23;20335;-78
2024/01/26 08:28:00;;;;;;;20.38;14.02;;;8.60;65.70;;;;;;6121807;23;20025;-78
2024/01/26 08:30:26;;;;;;;22.05;13.43;;;8.70;65.70;;;;;;6121468;23;20014;-78
2024/01/26 08:32:52;;;;;;;20.30;13.25;;;8.70;65.80;;;;;;6097121;23;20091;-78
2024/01/26 08:35:18;;;;;;;21.50;13.60;;;8.70;65.80;;;;;;6121292;23;20018;-79
2024/01/26 08:37:44;;;;;;;21.83;14.30;;;8.70;65.80;;;;;;6123981;23;20064;-80
2024/01/26 08:40:11;;;;;;;22.73;14.95;;;8.70;65.60;;;;;;6072982;23;20021;-79
2024/01/26 08:42:37;;;;;;;20.98;14.30;;;8.70;65.50;;;;;;6096974;23;20026;-79
2024/01/26 08:45:03;;;;;;;21.67;13.82;;;8.70;65.40;;;;;;6145677;23;20018;-79
2024/01/26 08:47:31;;;;;;;20.27;13.95;;;8.70;65.40;;;;;;6121147;23;20034;-79
2024/01/26 08:49:57;;;;;;;21.60;14.10;;;8.70;65.50;;;;;;6145969;23;20017;-78
2024/01/26 08:52:23;;;;;;;23.08;14.13;;;8.70;65.30;;;;;;6097058;23;20006;-79
2024/01/26 08:54:49;;;;;;;22.40;14.10;;;8.70;65.30;;;;;;6123082;23;20061;-79
2024/01/26 08:57:15;;;;;;;23.25;14.45;;;8.70;65.20;;;;;;6121528;23;20021;-78
2024/01/26 08:59:43;;;;;;;22.95;14.77;;;8.70;65.30;;;;;;6145710;23;20351;-77
2024/01/26 09:02:09;;;;;;;22.15;14.23;;;8.80;65.30;;;;;;6123086;23;20013;-78
2024/01/26 09:04:36;;;;;;;23.58;14.52;;;8.70;65.40;;;;;;6123760;23;20014;-80
2024/01/26 09:07:02;;;;;;;21.65;14.38;;;8.80;65.50;;;;;;6121000;23;20026;-79
2024/01/26 09:09:28;;;;;;;21.63;13.70;;;8.80;65.40;;;;;;6121195;23;20061;-79
2024/01/26 09:11:55;;;;;;;19.63;14.52;;;8.80;65.40;;;;;;6120896;23;20021;-80
2024/01/26 09:14:21;;;;;;;22.77;14.35;;;8.80;65.40;;;;;;6096949;23;20020;-79
2024/01/26 09:16:51;;;;;;;22.48;14.30;;;8.80;65.20;;;;;;6146113;23;20014;-79
2024/01/26 09:19:18;;;;;;;22.48;14.23;;;8.80;65.30;;;;;;6073113;23;20086;-80
2024/01/26 09:21:44;;;;;;;23.70;15.65;;;8.80;65.30;;;;;;6121583;23;20018;-81
2024/01/26 09:24:10;;;;;;;24.80;15.02;;;8.80;65.20;;;;;;6123132;23;20454;-87
2024/01/26 09:26:39;;;;;;;18.25;12.43;;;8.80;64.90;;;;;;6125085;23;20022;-93
2024/01/26 09:29:08;;;;;;;16.17;10.73;;;8.90;67.90;;;;;;6123905;23;20010;-89
2024/01/26 09:31:34;;;;;;;13.68;10.05;;;9.00;68.50;;;;;;6147664;23;20016;-78
2024/01/26 09:34:00;;;;;;;16.80;10.95;;;9.20;69.50;;;;;;6145762;23;20020;-80
2024/01/26 09:36:26;;;;;;;18.88;12.18;;;9.20;69.40;;;;;;6120530;23;20033;-81
2024/01/26 09:38:52;;;;;;;18.98;14.07;;;9.30;68.30;;;;;;6122788;23;20018;-80
2024/01/26 09:41:19;;;;;;;22.60;14.20;;;9.30;67.00;;;;;;6121566;23;20029;-80
2024/01/26 09:43:46;;;;;;;23.98;15.55;;;9.20;66.20;;;;;;6121822;23;20366;-80
2024/01/26 09:46:13;;;;;;;20.98;14.70;;;9.30;66.00;;;;;;6120728;23;20354;-79
2024/01/26 09:48:39;;;;;;;23.63;15.30;;;9.30;65.60;;;;;;6121292;23;20026;-79
2024/01/26 09:51:05;;;;;;;24.45;15.43;;;9.30;65.00;;;;;;6121508;23;20521;-80
2024/01/26 09:53:34;;;;;;;24.67;15.88;;;9.20;64.90;;;;;;6121771;23;20454;-79
2024/01/26 09:56:01;;;;;;;25.38;16.50;;;9.20;64.90;;;;;;6121768;23;20450;-79
2024/01/26 09:58:28;;;;;;;23.38;15.90;;;9.20;64.80;;;;;;6121117;23;20013;-80
2024/01/26 10:00:55;;;;;;;26.02;17.02;;;9.20;64.70;;;;;;6121359;23;20065;-81
2024/01/26 10:03:27;;;;;;;26.08;17.15;;;9.20;65.00;;;;;;6121572;23;20048;-81
2024/01/26 10:05:53;;;;;;;25.20;16.73;;;9.30;65.00;;;;;;6121435;23;20450;-80
2024/01/26 10:08:19;;;;;;;25.38;17.30;;;9.20;65.00;;;;;;6122462;23;20017;-80
2024/01/26 10:10:46;;;;;;;23.92;16.15;;;9.20;64.80;;;;;;6096116;23;20096;-80
2024/01/26 10:13:12;;;;;;;26.80;17.33;;;9.20;64.90;;;;;;6122943;23;20482;-80
2024/01/26 10:15:38;;;;;;;24.08;16.20;;;9.20;65.00;;;;;;6122982;23;20018;-80
2024/01/26 10:18:05;;;;;;;26.05;17.25;;;9.20;64.90;;;;;;6095891;23;20021;-79
2024/01/26 10:20:31;;;;;;;25.35;17.05;;;9.20;65.00;;;;;;6118999;23;20366;-80
2024/01/26 10:22:57;;;;;;;24.73;16.95;;;9.20;64.80;;;;;;6120150;23;20009;-80
2024/01/26 10:25:23;;;;;;;24.75;16.17;;;9.20;64.70;;;;;;6146579;23;20442;-80
2024/01/26 10:27:49;;;;;;;22.77;16.25;;;9.20;64.90;;;;;;6096208;23;20018;-79
2024/01/26 10:30:15;;;;;;;23.67;16.25;;;9.20;65.00;;;;;;6120770;23;20022;-80
2024/01/26 10:32:43;;;;;;;23.27;15.32;;;9.20;65.00;;;;;;6119368;23;20033;-80
2024/01/26 10:35:10;;;;;;;25.10;15.95;;;9.20;65.30;;;;;;6120264;23;20014;-80
2024/01/26 10:37:37;;;;;;;26.33;16.55;;;9.20;65.30;;;;;;6098156;23;20010;-80
2024/01/26 10:40:04;;;;;;;22.40;15.00;;;9.10;64.70;;;;;;6097634;23;20022;-80
2024/01/26 10:42:30;;;;;;;26.00;17.10;;;9.20;64.80;;;;;;6097634;23;20042;-82
2024/01/26 10:44:58;;;;;;;23.80;17.00;;;9.10;64.80;;;;;;6073315;23;20455;-81
2024/01/26 10:47:26;;;;;;;24.05;16.02;;;9.10;64.60;;;;;;6072067;23;20157;-81
2024/01/26 10:49:57;;;;;;;25.35;16.73;;;9.20;64.70;;;;;;6122934;23;20025;-81
2024/01/26 10:52:24;;;;;;;26.58;16.95;;;9.10;64.50;;;;;;6122855;23;20089;-81
2024/01/26 10:54:51;;;;;;;23.48;16.15;;;9.10;64.40;;;;;;6122914;23;20041;-81
2024/01/26 10:57:19;;;;;;;27.45;17.33;;;9.10;64.30;;;;;;6120187;23;20029;-81
2024/01/26 10:59:47;;;;;;;27.00;17.65;;;9.10;64.30;;;;;;6122628;23;20018;-81
2024/01/26 11:02:31;;;;;;;25.23;16.98;;;9.10;64.30;;;;;;6122389;23;20109;-81
2024/01/26 11:05:02;;;;;;;26.27;17.25;;;9.10;64.20;;;;;;6120244;23;20012;-80
2024/01/26 11:07:34;;;;;;;25.40;17.10;;;9.10;64.20;;;;;;6122799;23;20093;-80
2024/01/26 11:10:07;;;;;;;26.75;16.98;;;9.10;64.20;;;;;;6122957;23;20014;-81
2024/01/26 11:12:36;;;;;;;25.70;16.92;;;9.10;64.40;;;;;;6120905;23;20492;-81
2024/01/26 11:15:13;;;;;;;27.92;18.10;;;9.10;64.80;;;;;;6097366;23;20022;-79
2024/01/26 11:17:59;;;;;;;26.15;17.70;;;9.10;64.90;;;;;;6120563;23;20017;-81
2024/01/26 11:20:30;;;;;;;26.25;16.83;;;9.10;65.00;;;;;;6119102;23;20022;-81
2024/01/26 11:23:10;;;;;;;25.90;17.35;;;9.10;64.90;;;;;;6145586;23;20021;-80
2024/01/26 11:25:41;;;;;;;27.52;18.85;;;9.10;64.90;;;;;;6122084;23;20446;-80
2024/01/26 11:28:08;;;;;;;26.45;17.05;;;9.10;64.80;;;;;;6146082;23;20432;-79
2024/01/26 11:30:35;;;;;;;28.58;18.08;;;9.10;65.10;;;;;;6121956;23;20021;-79
2024/01/26 11:33:01;;;;;;;26.85;16.90;;;9.10;65.10;;;;;;6121828;23;20069;-81
2024/01/26 11:35:27;;;;;;;26.90;17.70;;;9.10;64.90;;;;;;6123227;23;20100;-80
2024/01/26 11:37:58;;;;;;;25.15;16.48;;;9.10;65.00;;;;;;6122884;23;20014;-79
2024/01/26 11:40:24;;;;;;;25.65;17.08;;;9.10;65.00;;;;;;6122413;23;20013;-80
2024/01/26 11:42:51;;;;;;;24.45;16.20;;;9.10;65.00;;;;;;6145949;23;20104;-80
2024/01/26 11:45:36;;;;;;;25.45;16.50;;;9.10;65.10;;;;;;6123061;23;20021;-80
2024/01/26 11:48:06;;;;;;;24.88;16.17;;;9.10;65.40;;;;;;6120747;23;20675;-79
2024/01/26 11:50:33;;;;;;;25.27;15.93;;;9.10;65.50;;;;;;6097338;23;20014;-79
2024/01/26 11:52:59;;;;;;;26.38;16.83;;;9.10;65.40;;;;;;6097030;23;20156;-79
2024/01/26 11:55:26;;;;;;;23.05;15.30;;;9.10;65.60;;;;;;6098119;23;20020;-79
2024/01/26 11:57:52;;;;;;;24.90;15.75;;;9.10;65.70;;;;;;6096780;23;20114;-79
2024/01/26 12:00:18;;;;;;;22.48;15.63;;;9.10;65.50;;;;;;6099038;23;20361;-80
2024/01/26 12:02:45;;;;;;;21.00;14.57;;;9.10;65.40;;;;;;6124755;23;20085;-79
2024/01/26 12:05:11;;;;;;;22.45;15.05;;;9.10;65.20;;;;;;6123291;23;20065;-79
2024/01/26 12:07:38;;;;;;;22.00;14.73;;;9.10;65.20;;;;;;6148339;23;20060;-79
2024/01/26 12:10:05;;;;;;;23.15;15.15;;;9.10;65.10;;;;;;6098811;23;20029;-79
2024/01/26 12:12:31;;;;;;;21.50;14.60;;;9.10;65.00;;;;;;6124358;23;20026;-79
2024/01/26 12:14:57;;;;;;;23.63;14.20;;;9.10;64.90;;;;;;6125010;23;20080;-79
2024/01/26 12:17:23;;;;;;;22.00;15.00;;;9.10;64.80;;;;;;6122988;23;20096;-80
2024/01/26 12:19:50;;;;;;;23.13;14.77;;;9.10;64.70;;;;;;6147905;23;20017;-81
2024/01/26 12:22:17;;;;;;;23.63;14.70;;;9.10;64.60;;;;;;6098522;23;20104;-79
2024/01/26 12:24:44;;;;;;;21.38;14.68;;;9.10;64.50;;;;;;6098672;23;20022;-79
2024/01/26 12:27:10;;;;;;;21.88;14.30;;;9.10;64.30;;;;;;6074496;23;20034;-79
2024/01/26 12:29:37;;;;;;;21.95;15.35;;;9.10;64.30;;;;;;6122973;23;20025;-80
2024/01/26 12:32:04;;;;;;;23.67;14.75;;;9.10;64.20;;;;;;6123283;23;20006;-80
2024/01/26 12:34:30;;;;;;;23.75;14.93;;;9.10;64.40;;;;;;6075618;23;20010;-80